Time;durP1;ratioP1;P1;durP2;ratioP2;P2;SDS_P1;SDS_P2;PMS_P1;PMS_P2;Temp;Humidity;BMP_temperature;BMP_pressure;BME280_temperature;BME280_humidity;BME280_pressure;Samples;Min_cycle;Max_cycle;Signal;HPM_P1;HPM_P2
2022/01/09 00:00:08;;;;;;;2.10;2.00;;;;;;;3.69;85.06;94967.72;5075327;28;20229;-67
2022/01/09 00:02:35;;;;;;;2.10;2.00;;;;;;;3.86;84.39;94975.63;5080135;28;20695;-70
2022/01/09 00:05:02;;;;;;;2.13;2.03;;;;;;;3.86;84.38;94962.56;5072007;28;20203;-67
2022/01/09 00:07:28;;;;;;;2.20;2.10;;;;;;;3.77;85.16;94960.81;5079608;28;20203;-66
2022/01/09 00:09:56;;;;;;;2.50;2.40;;;;;;;3.88;84.59;94968.50;5071236;28;20614;-66
2022/01/09 00:12:22;;;;;;;2.20;2.10;;;;;;;3.76;84.36;94969.63;5068560;28;20199;-67
2022/01/09 00:14:49;;;;;;;2.17;2.07;;;;;;;3.81;84.90;94972.63;5064486;28;20202;-67
2022/01/09 00:17:15;;;;;;;2.50;2.07;;;;;;;3.82;86.61;94971.69;5065924;28;20795;-64
2022/01/09 00:19:43;;;;;;;2.43;2.23;;;;;;;3.78;85.98;94972.94;5064851;28;20205;-64
2022/01/09 00:22:10;;;;;;;2.23;2.13;;;;;;;3.67;88.26;94965.25;5065418;28;20233;-65
2022/01/09 00:24:36;;;;;;;2.40;2.30;;;;;;;3.74;88.58;94978.56;5065405;28;20268;-65
2022/01/09 00:27:03;;;;;;;2.47;2.37;;;;;;;3.75;88.38;94988.91;5065179;28;20210;-66
2022/01/09 00:29:29;;;;;;;2.50;2.40;;;;;;;3.78;87.49;94952.03;5063387;28;20223;-64
2022/01/09 00:31:56;;;;;;;2.43;2.33;;;;;;;3.80;87.10;94955.31;5065548;28;20207;-65
2022/01/09 00:34:22;;;;;;;2.10;2.00;;;;;;;3.85;87.29;94952.25;5063890;28;20206;-64
2022/01/09 00:36:50;;;;;;;2.50;2.40;;;;;;;3.82;87.07;94952.56;5063758;28;20199;-63
2022/01/09 00:39:17;;;;;;;2.40;2.30;;;;;;;3.82;87.26;94976.91;5062806;28;20521;-65
2022/01/09 00:41:43;;;;;;;2.57;2.47;;;;;;;3.86;87.39;94996.53;5063343;28;20229;-64
2022/01/09 00:44:09;;;;;;;2.60;2.50;;;;;;;3.84;87.68;94990.66;5061624;28;20301;-64
2022/01/09 00:46:36;;;;;;;2.80;2.60;;;;;;;3.79;87.89;94979.78;5063164;28;20206;-65
2022/01/09 00:49:05;;;;;;;2.90;2.70;;;;;;;3.83;87.26;94981.16;5062748;28;20202;-65
2022/01/09 00:51:32;;;;;;;2.57;2.40;;;;;;;3.78;87.75;94980.78;5062328;28;20218;-64
2022/01/09 00:54:00;;;;;;;2.60;2.40;;;;;;;3.79;86.82;94974.56;5061615;28;20649;-65
2022/01/09 00:56:26;;;;;;;2.73;2.57;;;;;;;3.77;87.24;94965.22;5062603;28;20308;-66
2022/01/09 00:58:52;;;;;;;2.83;2.53;;;;;;;3.77;88.01;94981.72;5062475;28;20207;-64
2022/01/09 01:01:20;;;;;;;2.60;2.40;;;;;;;3.84;86.82;95006.34;5062700;28;20236;-64
2022/01/09 01:03:47;;;;;;;2.47;2.37;;;;;;;3.82;85.53;95010.06;5061933;28;20210;-65
2022/01/09 01:06:14;;;;;;;2.50;2.30;;;;;;;3.75;86.55;94999.38;5061603;28;20210;-65
2022/01/09 01:08:40;;;;;;;2.30;2.20;;;;;;;3.66;86.77;94979.28;5061940;28;20260;-65
2022/01/09 01:11:09;;;;;;;2.53;2.33;;;;;;;3.66;86.34;94973.22;5062047;28;20209;-65
2022/01/09 01:13:36;;;;;;;2.37;2.27;;;;;;;3.66;86.36;94979.28;5062166;28;20271;-64
2022/01/09 01:16:02;;;;;;;2.40;2.20;;;;;;;3.61;87.15;94989.34;5061871;28;20209;-64
2022/01/09 01:18:29;;;;;;;2.27;2.13;;;;;;;3.65;87.20;94988.09;5061975;28;20630;-65
2022/01/09 01:20:55;;;;;;;1.97;1.87;;;;;;;3.66;88.22;94988.91;5062173;28;20574;-64
2022/01/09 01:23:21;;;;;;;1.80;1.70;;;;;;;3.63;87.12;94999.66;5061510;28;20210;-65
2022/01/09 01:25:51;;;;;;;2.70;2.00;;;;;;;3.49;88.57;94993.91;5062073;28;20194;-65
2022/01/09 01:28:19;;;;;;;2.27;2.17;;;;;;;3.46;89.09;94994.19;5062184;28;20230;-65
2022/01/09 01:30:46;;;;;;;2.00;1.90;;;;;;;3.50;88.31;95002.56;5061763;28;20621;-65
2022/01/09 01:33:12;;;;;;;2.03;1.93;;;;;;;3.43;89.07;95001.47;5059995;28;20618;-65
2022/01/09 01:35:39;;;;;;;1.90;1.80;;;;;;;3.45;89.60;94987.31;5062031;28;20209;-65
2022/01/09 01:38:05;;;;;;;1.70;1.60;;;;;;;3.35;90.57;94965.59;5061386;28;20206;-65
2022/01/09 01:40:32;;;;;;;2.30;1.90;;;;;;;3.40;90.93;94970.41;5061464;28;20217;-65
2022/01/09 01:42:58;;;;;;;1.43;1.40;;;;;;;3.46;91.31;94972.47;5061010;28;20210;-65
2022/01/09 01:45:26;;;;;;;1.50;1.40;;;;;;;3.51;91.42;94981.50;5062177;28;20205;-64
2022/01/09 01:47:53;;;;;;;1.50;1.37;;;;;;;3.56;91.72;94981.09;5061582;28;20215;-64
2022/01/09 01:50:20;;;;;;;1.90;1.43;;;;;;;3.61;92.42;94980.69;5061649;28;20206;-65
2022/01/09 01:52:49;;;;;;;1.40;1.30;;;;;;;3.66;92.37;94981.91;5062973;28;20293;-65
2022/01/09 01:55:16;;;;;;;1.40;1.30;;;;;;;3.71;91.85;94982.31;5083401;28;20228;-66
2022/01/09 01:57:44;;;;;;;1.90;1.17;;;;;;;3.77;92.34;94981.72;5080248;28;20199;-64
2022/01/09 02:00:13;;;;;;;0.90;0.90;;;;;;;3.87;92.97;94995.59;5076002;28;20199;-65
2022/01/09 02:02:41;;;;;;;1.10;1.10;;;;;;;3.98;92.55;94994.59;5062383;28;20227;-65
2022/01/09 02:05:08;;;;;;;1.30;1.20;;;;;;;4.05;92.36;94987.00;5061729;28;20340;-65
2022/01/09 02:07:35;;;;;;;1.33;0.97;;;;;;;4.23;91.87;94982.66;5062035;28;20221;-66
2022/01/09 02:10:02;;;;;;;1.00;0.90;;;;;;;4.26;91.51;94990.19;5061899;28;20213;-65
2022/01/09 02:12:29;;;;;;;0.73;0.73;;;;;;;4.31;90.45;94986.19;5062096;28;20205;-66
2022/01/09 02:14:56;;;;;;;0.70;0.70;;;;;;;4.38;90.71;95000.34;5085072;28;20211;-65
2022/01/09 02:17:22;;;;;;;0.73;0.73;;;;;;;4.36;91.50;95011.91;5088146;28;20178;-64
2022/01/09 02:19:52;;;;;;;0.90;0.90;;;;;;;4.55;90.47;95014.44;5075884;28;20191;-65
2022/01/09 02:22:19;;;;;;;0.80;0.80;;;;;;;4.63;89.39;95009.31;5073395;28;20225;-66
2022/01/09 02:24:45;;;;;;;0.63;0.63;;;;;;;4.66;88.91;95011.63;5064175;28;20264;-65
2022/01/09 02:27:12;;;;;;;0.80;0.70;;;;;;;4.61;89.93;95011.22;5064354;28;20492;-65
2022/01/09 02:29:38;;;;;;;0.83;0.83;;;;;;;4.69;88.16;94995.63;5063418;28;20315;-66
2022/01/09 02:32:06;;;;;;;0.70;0.70;;;;;;;4.80;87.72;95005.88;5062053;28;20202;-65
2022/01/09 02:34:33;;;;;;;0.80;0.80;;;;;;;4.87;87.95;95025.28;5061623;28;20215;-65
2022/01/09 02:37:01;;;;;;;0.40;0.40;;;;;;;4.83;88.24;95033.56;5061515;28;20214;-64
2022/01/09 02:39:27;;;;;;;0.40;0.40;;;;;;;4.88;88.34;95026.94;5060950;28;20213;-65
2022/01/09 02:41:54;;;;;;;0.53;0.50;;;;;;;4.92;88.19;95054.44;5061229;28;20229;-65
2022/01/09 02:44:20;;;;;;;0.30;0.30;;;;;;;4.97;87.76;95052.22;5060647;28;20199;-64
2022/01/09 02:46:57;;;;;;;0.30;0.30;;;;;;;5.02;86.65;95043.91;5061078;28;20203;-64
2022/01/09 02:49:26;;;;;;;0.30;0.30;;;;;;;5.00;88.13;95053.72;5063362;28;20241;-66
2022/01/09 02:51:52;;;;;;;1.13;0.30;;;;;;;4.98;88.17;95053.03;5065394;28;20206;-66
2022/01/09 02:57:04;;;;;;;0.30;0.30;;;;;;;4.99;87.54;95065.19;5065012;28;20202;-65
2022/01/09 02:59:31;;;;;;;0.10;0.10;;;;;;;5.11;87.29;95063.97;5064985;28;20205;-65
2022/01/09 03:01:57;;;;;;;0.10;0.10;;;;;;;5.00;87.49;95078.09;5064176;28;20242;-65
2022/01/09 03:04:25;;;;;;;0.20;0.20;;;;;;;4.94;86.95;95077.88;5062986;28;20452;-65
2022/01/09 03:06:52;;;;;;;0.30;0.30;;;;;;;4.86;87.95;95080.41;5064449;28;20198;-64
2022/01/09 03:09:19;;;;;;;0.13;0.13;;;;;;;5.01;87.27;95074.53;5064581;28;20211;-65
2022/01/09 03:11:47;;;;;;;0.20;0.20;;;;;;;4.88;86.94;95075.84;5064774;28;20203;-66
2022/01/09 03:14:14;;;;;;;0.10;0.10;;;;;;;4.85;87.52;95078.78;5064298;28;20211;-62
2022/01/09 03:16:40;;;;;;;0.20;0.20;;;;;;;4.78;87.42;95093.41;5064654;28;20210;-64
2022/01/09 03:19:06;;;;;;;0.10;0.10;;;;;;;4.74;88.45;95100.75;5065271;28;20207;-64
2022/01/09 03:21:33;;;;;;;0.20;0.20;;;;;;;4.74;89.40;95108.59;5064511;28;20566;-65
2022/01/09 03:23:59;;;;;;;0.10;0.10;;;;;;;4.84;87.59;95117.22;5063019;28;20202;-65
2022/01/09 03:26:27;;;;;;;0.20;0.20;;;;;;;4.89;87.35;95101.88;5065823;28;20210;-66
2022/01/09 03:28:54;;;;;;;0.10;0.10;;;;;;;4.91;87.08;95120.91;5065244;28;20222;-66
2022/01/09 03:31:20;;;;;;;0.23;0.13;;;;;;;4.87;88.22;95119.53;5065416;28;20207;-65
2022/01/09 03:33:47;;;;;;;0.67;0.23;;;;;;;4.82;87.72;95127.00;5066347;28;20199;-66
2022/01/09 03:36:13;;;;;;;0.20;0.20;;;;;;;4.99;87.00;95122.81;5066491;28;20517;-65
2022/01/09 03:38:39;;;;;;;0.20;0.20;;;;;;;4.99;87.39;95136.69;5068431;28;20214;-66
2022/01/09 03:41:06;;;;;;;0.20;0.20;;;;;;;4.99;86.94;95139.31;5064111;28;20218;-64
2022/01/09 03:43:34;;;;;;;0.10;0.10;;;;;;;4.97;86.64;95141.28;5063986;28;21341;-65
2022/01/09 03:46:00;;;;;;;0.13;0.10;;;;;;;4.99;85.98;95146.38;5065259;28;20551;-64
2022/01/09 03:48:26;;;;;;;0.10;0.10;;;;;;;5.00;85.17;95158.47;5067032;28;20556;-65
2022/01/09 03:50:53;;;;;;;0.53;0.13;;;;;;;4.99;86.08;95168.13;5067678;28;20207;-66
2022/01/09 03:53:19;;;;;;;0.10;0.10;;;;;;;4.92;86.09;95167.06;5068345;28;20207;-65
2022/01/09 03:55:46;;;;;;;0.47;0.27;;;;;;;4.88;86.68;95184.06;5070038;28;20222;-66
2022/01/09 03:58:12;;;;;;;0.13;0.13;;;;;;;4.81;86.61;95175.13;5071884;28;20194;-65
2022/01/09 04:00:40;;;;;;;0.10;0.10;;;;;;;4.70;87.32;95183.16;5067061;28;20206;-65
2022/01/09 04:03:07;;;;;;;0.10;0.10;;;;;;;4.61;88.26;95191.84;5064073;28;20212;-66
2022/01/09 04:05:33;;;;;;;0.10;0.10;;;;;;;4.64;88.26;95199.41;5063221;28;20207;-66
2022/01/09 04:08:00;;;;;;;0.10;0.10;;;;;;;4.50;88.57;95200.69;5063782;28;20202;-65
2022/01/09 04:10:29;;;;;;;0.47;0.10;;;;;;;4.55;88.78;95208.13;5063292;28;20203;-64
2022/01/09 04:12:59;;;;;;;0.20;0.20;;;;;;;4.59;88.39;95219.16;5062217;28;20210;-65
2022/01/09 04:15:26;;;;;;;0.10;0.10;;;;;;;4.53;87.93;95212.69;5064832;28;20206;-65
2022/01/09 04:17:55;;;;;;;0.17;0.17;;;;;;;4.51;87.93;95217.22;5063848;28;20213;-65
2022/01/09 04:20:22;;;;;;;0.10;0.10;;;;;;;4.34;89.16;95231.03;5063716;28;20250;-64
2022/01/09 04:22:49;;;;;;;0.10;0.10;;;;;;;4.38;88.78;95233.25;5062500;28;20227;-66
2022/01/09 04:25:17;;;;;;;0.20;0.20;;;;;;;4.31;89.27;95228.72;5063484;28;20199;-65
2022/01/09 04:27:45;;;;;;;0.00;0.00;;;;;;;4.21;89.99;95247.03;5062757;28;20275;-66
2022/01/09 04:30:12;;;;;;;0.10;0.10;;;;;;;4.07;90.06;95239.59;5063374;28;20214;-65
2022/01/09 04:32:38;;;;;;;0.10;0.10;;;;;;;3.99;90.77;95248.13;5063278;28;20526;-65
2022/01/09 04:35:08;;;;;;;0.00;0.00;;;;;;;4.03;90.65;95264.38;5062695;28;20214;-65
2022/01/09 04:37:37;;;;;;;0.00;0.00;;;;;;;3.84;90.97;95254.72;5062580;28;20208;-66
2022/01/09 04:40:06;;;;;;;0.10;0.10;;;;;;;3.88;90.73;95256.09;5062738;28;20630;-65
2022/01/09 04:42:38;;;;;;;0.40;0.10;;;;;;;3.76;91.47;95257.19;5062397;28;20217;-65
2022/01/09 04:45:07;;;;;;;0.00;0.00;;;;;;;3.73;91.36;95256.63;5063292;28;20206;-65
2022/01/09 04:47:34;;;;;;;0.10;0.10;;;;;;;3.71;91.74;95267.22;5062546;28;20211;-64
2022/01/09 04:50:01;;;;;;;0.20;0.20;;;;;;;3.77;91.55;95269.28;5063036;28;20313;-67
2022/01/09 04:52:33;;;;;;;0.20;0.20;;;;;;;3.71;92.01;95269.00;5061768;28;20688;-66
2022/01/09 04:55:00;;;;;;;0.10;0.10;;;;;;;3.65;93.24;95266.94;5062876;28;20198;-65
2022/01/09 04:57:26;;;;;;;0.20;0.20;;;;;;;3.65;93.22;95267.75;5062396;28;20206;-65
2022/01/09 04:59:52;;;;;;;0.10;0.10;;;;;;;3.66;92.60;95272.03;5061902;28;20544;-66
2022/01/09 05:02:19;;;;;;;1.13;0.30;;;;;;;3.59;92.99;95270.06;5061747;28;20242;-64
2022/01/09 05:04:45;;;;;;;0.10;0.10;;;;;;;3.64;93.04;95284.41;5061999;28;20625;-65
2022/01/09 05:07:12;;;;;;;0.17;0.17;;;;;;;3.57;93.56;95288.53;5062064;28;20202;-65
2022/01/09 05:09:39;;;;;;;0.00;0.00;;;;;;;3.58;93.55;95295.38;5061696;28;20206;-66
2022/01/09 05:12:07;;;;;;;0.20;0.17;;;;;;;3.63;93.45;95308.88;5061062;28;20205;-66
2022/01/09 05:14:33;;;;;;;0.10;0.10;;;;;;;3.57;94.37;95329.50;5060645;28;20553;-65
2022/01/09 05:17:00;;;;;;;0.97;0.10;;;;;;;3.63;94.05;95335.03;5062483;28;20205;-64
2022/01/09 05:19:30;;;;;;;0.63;0.10;;;;;;;3.72;92.51;95344.69;5062208;28;20221;-66
2022/01/09 05:21:57;;;;;;;0.07;0.07;;;;;;;3.76;91.46;95350.47;5061986;28;20209;-64
2022/01/09 05:24:24;;;;;;;0.10;0.10;;;;;;;3.76;91.63;95356.53;5062016;28;20207;-66
2022/01/09 05:26:52;;;;;;;0.00;0.00;;;;;;;3.65;92.24;95359.22;5061742;28;20204;-64
2022/01/09 05:29:18;;;;;;;0.10;0.10;;;;;;;3.68;91.76;95364.22;5061671;28;20530;-65
2022/01/09 05:31:45;;;;;;;0.00;0.00;;;;;;;3.67;92.14;95357.34;5061898;28;20222;-65
2022/01/09 05:34:11;;;;;;;0.10;0.10;;;;;;;3.58;92.51;95359.91;5061910;28;20579;-64
2022/01/09 05:36:38;;;;;;;0.10;0.10;;;;;;;3.76;92.26;95359.13;5061649;28;20543;-64
2022/01/09 05:39:04;;;;;;;0.10;0.10;;;;;;;3.73;91.17;95355.97;5061699;28;20534;-64
2022/01/09 05:41:30;;;;;;;0.10;0.10;;;;;;;3.71;91.80;95371.78;5065567;28;20198;-65
2022/01/09 05:43:58;;;;;;;0.30;0.30;;;;;;;3.73;91.70;95364.63;5067637;28;20213;-66
2022/01/09 05:46:25;;;;;;;0.50;0.40;;;;;;;3.77;90.92;95373.88;5065826;28;20210;-65
2022/01/09 05:48:52;;;;;;;0.20;0.20;;;;;;;3.71;88.99;95363.94;5062695;28;20281;-65
2022/01/09 05:51:18;;;;;;;0.10;0.10;;;;;;;3.70;90.11;95383.22;5062246;28;20193;-64
2022/01/09 05:53:45;;;;;;;0.10;0.10;;;;;;;3.66;89.58;95376.59;5075427;28;20212;-65
2022/01/09 05:56:11;;;;;;;0.10;0.10;;;;;;;3.62;89.94;95393.47;5074523;28;20224;-66
2022/01/09 05:58:39;;;;;;;0.27;0.20;;;;;;;3.65;89.18;95377.53;5079116;28;20205;-66
2022/01/09 06:01:08;;;;;;;0.40;0.17;;;;;;;3.66;89.34;95399.28;5078206;28;20248;-66
2022/01/09 06:03:34;;;;;;;0.20;0.20;;;;;;;3.72;88.08;95396.16;5069913;28;20592;-66
2022/01/09 06:06:01;;;;;;;0.33;0.20;;;;;;;3.60;89.83;95410.25;5073575;28;20201;-65
2022/01/09 06:08:27;;;;;;;0.20;0.20;;;;;;;3.59;88.80;95422.50;5076543;28;20658;-66
2022/01/09 06:10:54;;;;;;;0.10;0.10;;;;;;;3.61;89.19;95428.44;5064361;28;20202;-66
2022/01/09 06:13:21;;;;;;;0.20;0.20;;;;;;;3.58;88.75;95427.88;5062021;28;20507;-65
2022/01/09 06:15:47;;;;;;;0.30;0.30;;;;;;;3.56;89.03;95435.84;5067426;28;20210;-66
2022/01/09 06:18:19;;;;;;;0.40;0.40;;;;;;;3.56;88.76;95428.00;5076329;28;20217;-64
2022/01/09 06:20:45;;;;;;;1.10;0.43;;;;;;;3.54;88.18;95435.16;5080208;28;20191;-66
2022/01/09 06:23:11;;;;;;;0.30;0.30;;;;;;;3.57;87.74;95437.50;5081240;28;20217;-66
2022/01/09 06:25:38;;;;;;;0.50;0.23;;;;;;;3.49;88.19;95447.75;5087485;28;20195;-65
2022/01/09 06:28:05;;;;;;;0.20;0.20;;;;;;;3.60;88.21;95444.25;5074373;28;20212;-65
2022/01/09 06:30:31;;;;;;;0.40;0.30;;;;;;;3.62;87.13;95440.53;5067298;28;20206;-65
2022/01/09 06:32:58;;;;;;;0.30;0.30;;;;;;;3.66;86.43;95462.00;5067114;28;20286;-65
2022/01/09 06:35:26;;;;;;;0.40;0.10;;;;;;;3.56;87.28;95461.97;5066137;28;20209;-63
2022/01/09 06:37:52;;;;;;;0.23;0.23;;;;;;;3.60;87.01;95465.97;5066410;28;20205;-64
2022/01/09 06:40:19;;;;;;;0.33;0.10;;;;;;;3.53;87.55;95471.84;5066722;28;20205;-64
2022/01/09 06:42:45;;;;;;;1.13;0.47;;;;;;;3.53;88.79;95475.31;5068483;28;20221;-65
2022/01/09 06:45:12;;;;;;;0.67;0.50;;;;;;;3.48;88.23;95478.28;5067275;28;20199;-65
2022/01/09 06:47:39;;;;;;;1.27;0.30;;;;;;;3.51;87.14;95482.41;5069811;28;20572;-65
2022/01/09 06:50:07;;;;;;;1.27;0.33;;;;;;;3.42;87.60;95483.22;5069913;28;20539;-65
2022/01/09 06:52:34;;;;;;;0.67;0.40;;;;;;;3.50;86.74;95486.84;5078446;28;20206;-65
2022/01/09 06:55:01;;;;;;;0.83;0.30;;;;;;;3.51;87.18;95500.72;5087074;28;20183;-64
2022/01/09 06:57:27;;;;;;;1.57;0.43;;;;;;;3.57;85.71;95492.38;5087498;28;20207;-66
2022/01/09 06:59:54;;;;;;;1.17;0.40;;;;;;;3.56;85.06;95498.56;5086047;28;20202;-64
2022/01/09 07:02:20;;;;;;;0.63;0.30;;;;;;;3.53;85.46;95517.13;5093620;28;20263;-64
2022/01/09 07:04:46;;;;;;;1.60;0.57;;;;;;;3.48;86.34;95508.81;5072889;28;20213;-65
2022/01/09 07:07:13;;;;;;;0.33;0.23;;;;;;;3.64;85.91;95519.66;5075485;28;20194;-65
2022/01/09 07:09:41;;;;;;;1.40;0.57;;;;;;;3.64;84.76;95518.84;5068426;28;20210;-65
2022/01/09 07:12:09;;;;;;;0.77;0.50;;;;;;;3.69;83.91;95521.88;5070238;28;20213;-66
2022/01/09 07:14:35;;;;;;;1.17;0.43;;;;;;;3.71;83.46;95536.50;5065057;28;20208;-65
2022/01/09 07:17:02;;;;;;;2.80;0.60;;;;;;;3.63;82.79;95523.22;5065201;28;20202;-64
2022/01/09 07:19:29;;;;;;;1.57;0.53;;;;;;;3.69;83.65;95541.00;5065834;28;20587;-63
2022/01/09 07:21:56;;;;;;;1.80;0.70;;;;;;;3.75;81.76;95553.59;5065056;28;20210;-66
2022/01/09 07:24:22;;;;;;;2.20;0.80;;;;;;;3.61;83.43;95548.69;5064741;28;20240;-65
2022/01/09 07:26:50;;;;;;;1.50;0.60;;;;;;;3.61;82.88;95546.06;5064448;28;20308;-65
2022/01/09 07:29:16;;;;;;;2.27;0.67;;;;;;;3.62;82.66;95542.47;5065947;28;20513;-64
2022/01/09 07:31:43;;;;;;;2.20;0.70;;;;;;;3.58;81.62;95545.50;5065079;28;20298;-65
2022/01/09 07:34:09;;;;;;;1.77;0.70;;;;;;;3.67;81.47;95542.94;5063966;28;20295;-64
2022/01/09 07:36:36;;;;;;;2.80;0.80;;;;;;;3.69;79.26;95537.56;5063500;28;20218;-65
2022/01/09 07:39:04;;;;;;;1.33;0.70;;;;;;;3.75;79.66;95550.13;5065124;28;20198;-65
2022/01/09 07:41:30;;;;;;;2.77;0.73;;;;;;;3.75;79.21;95548.34;5064492;28;20214;-65
2022/01/09 07:43:58;;;;;;;1.57;0.70;;;;;;;3.71;80.31;95556.56;5064960;28;20646;-65
2022/01/09 07:46:24;;;;;;;2.47;0.87;;;;;;;3.68;79.21;95556.84;5066388;28;20673;-65
2022/01/09 07:48:51;;;;;;;0.97;0.57;;;;;;;3.65;80.21;95565.75;5072495;28;20207;-66
2022/01/09 07:51:17;;;;;;;1.90;1.10;;;;;;;3.69;79.09;95564.53;5078393;28;20206;-65
2022/01/09 07:53:44;;;;;;;2.80;1.07;;;;;;;3.94;76.08;95574.59;5081808;28;20198;-65
2022/01/09 07:56:10;;;;;;;2.87;0.87;;;;;;;3.91;76.18;95587.09;5078064;28;20215;-66
2022/01/09 07:58:37;;;;;;;2.50;0.83;;;;;;;3.95;76.26;95584.13;5074616;28;20199;-66
2022/01/09 08:01:04;;;;;;;2.17;1.07;;;;;;;3.94;76.04;95582.44;5070633;28;20242;-65
2022/01/09 08:03:31;;;;;;;3.23;0.90;;;;;;;3.92;75.47;95602.69;5071169;28;20219;-64
2022/01/09 08:05:58;;;;;;;5.40;1.10;;;;;;;4.05;73.93;95596.41;5079955;28;20198;-65
2022/01/09 08:08:24;;;;;;;3.47;1.10;;;;;;;4.06;74.73;95608.53;5079877;28;20203;-65
2022/01/09 08:10:52;;;;;;;1.83;1.03;;;;;;;3.92;75.20;95607.91;5076688;28;20206;-66
2022/01/09 08:13:18;;;;;;;2.23;0.80;;;;;;;4.04;75.40;95607.84;5078405;28;20195;-66
2022/01/09 08:15:45;;;;;;;3.37;1.23;;;;;;;4.00;75.57;95615.94;5080301;28;20309;-66
2022/01/09 08:18:13;;;;;;;3.00;1.27;;;;;;;4.09;76.09;95610.88;5084321;28;20198;-67
2022/01/09 08:20:39;;;;;;;1.33;0.90;;;;;;;4.12;76.85;95616.69;5070522;28;20218;-65
2022/01/09 08:23:06;;;;;;;2.77;0.80;;;;;;;4.09;76.81;95610.88;5069621;28;20241;-65
2022/01/09 08:25:32;;;;;;;4.80;1.20;;;;;;;3.95;77.59;95607.66;5068257;28;20206;-65
2022/01/09 08:27:59;;;;;;;4.47;1.10;;;;;;;4.01;76.25;95617.59;5063405;28;20622;-64
2022/01/09 08:30:25;;;;;;;1.80;0.77;;;;;;;4.14;76.13;95616.56;5063516;28;20210;-64
2022/01/09 08:32:53;;;;;;;2.37;1.00;;;;;;;4.32;75.12;95615.84;5063385;28;20203;-66
2022/01/09 08:35:21;;;;;;;2.10;1.23;;;;;;;4.37;75.35;95618.06;5063429;28;20297;-66
2022/01/09 08:37:48;;;;;;;2.83;1.40;;;;;;;4.50;74.34;95624.75;5063147;28;20219;-65
2022/01/09 08:40:19;;;;;;;3.67;2.70;;;;;;;4.49;74.18;95617.03;5063059;28;20207;-65
2022/01/09 08:42:46;;;;;;;3.43;1.33;;;;;;;4.53;75.70;95621.06;5063067;28;20206;-64
2022/01/09 08:45:13;;;;;;;2.70;1.30;;;;;;;4.55;74.67;95615.66;5064541;28;20203;-64
2022/01/09 08:47:39;;;;;;;1.37;0.80;;;;;;;4.63;73.85;95616.69;5062966;28;20202;-65
2022/01/09 08:50:08;;;;;;;1.50;0.93;;;;;;;4.63;75.76;95621.91;5062919;28;20232;-65
2022/01/09 08:52:35;;;;;;;3.53;1.13;;;;;;;4.61;75.70;95626.44;5063895;28;20204;-64
2022/01/09 08:55:02;;;;;;;5.73;1.77;;;;;;;4.71;73.91;95619.44;5066312;28;20214;-65
2022/01/09 08:57:29;;;;;;;2.23;1.20;;;;;;;4.78;75.58;95619.78;5083192;28;20186;-64
2022/01/09 08:59:55;;;;;;;0.87;0.80;;;;;;;4.66;74.54;95618.19;5092157;28;20246;-65
2022/01/09 09:02:22;;;;;;;2.50;1.30;;;;;;;4.70;75.17;95620.44;5094334;28;20210;-65
2022/01/09 09:04:48;;;;;;;1.87;1.10;;;;;;;4.75;73.72;95613.00;5087327;28;20219;-64
2022/01/09 09:07:18;;;;;;;3.20;0.97;;;;;;;4.70;75.12;95615.19;5097464;28;20198;-65
2022/01/09 09:09:48;;;;;;;3.57;1.40;;;;;;;4.69;75.44;95621.38;5079334;28;20200;-64
2022/01/09 09:12:14;;;;;;;1.47;0.70;;;;;;;4.71;75.19;95624.69;5065842;28;20312;-66
2022/01/09 09:14:41;;;;;;;4.13;0.70;;;;;;;4.71;75.34;95631.75;5063649;28;20673;-65
2022/01/09 09:17:08;;;;;;;1.90;1.20;;;;;;;4.75;74.57;95617.38;5062847;28;20713;-65
2022/01/09 09:19:34;;;;;;;1.10;1.00;;;;;;;4.81;74.78;95625.56;5062618;28;20281;-64
2022/01/09 09:22:00;;;;;;;0.80;0.80;;;;;;;4.75;75.07;95613.00;5064032;28;20217;-65
2022/01/09 09:24:27;;;;;;;2.20;0.80;;;;;;;4.56;76.86;95618.16;5062291;28;20542;-64
2022/01/09 09:26:55;;;;;;;2.63;1.10;;;;;;;4.61;76.27;95626.44;5062413;28;20209;-65
2022/01/09 09:29:21;;;;;;;3.67;0.77;;;;;;;4.54;77.55;95635.78;5061588;28;20297;-65
2022/01/09 09:31:48;;;;;;;3.10;0.97;;;;;;;4.61;76.00;95636.91;5061789;28;20214;-64
2022/01/09 09:34:14;;;;;;;2.47;0.90;;;;;;;4.55;78.52;95642.69;5062659;28;20195;-66
2022/01/09 09:36:41;;;;;;;2.30;1.00;;;;;;;4.56;78.52;95644.34;5062783;28;20215;-65
2022/01/09 09:39:08;;;;;;;1.83;0.73;;;;;;;4.53;79.96;95645.41;5063178;28;20211;-66
2022/01/09 09:41:34;;;;;;;1.63;0.73;;;;;;;4.53;79.91;95648.03;5063019;28;21368;-64
2022/01/09 09:44:05;;;;;;;2.80;0.93;;;;;;;4.61;80.63;95655.25;5063347;28;20234;-64
2022/01/09 09:46:32;;;;;;;3.10;1.30;;;;;;;4.50;79.02;95650.91;5062003;28;20198;-65
2022/01/09 09:48:58;;;;;;;1.57;0.90;;;;;;;4.42;81.00;95647.31;5061935;28;20302;-66
2022/01/09 09:51:25;;;;;;;2.77;1.03;;;;;;;4.39;81.28;95653.59;5062505;28;20211;-64
2022/01/09 09:53:51;;;;;;;3.00;1.30;;;;;;;4.28;82.03;95647.66;5063080;28;20229;-64
2022/01/09 09:56:18;;;;;;;2.17;1.10;;;;;;;4.32;83.10;95647.22;5061455;28;20203;-65
2022/01/09 09:58:47;;;;;;;2.10;0.83;;;;;;;4.23;81.77;95641.97;5060411;28;20205;-65
2022/01/09 10:01:24;;;;;;;1.43;0.80;;;;;;;4.19;84.73;95635.31;5062711;28;20250;-64
2022/01/09 10:03:55;;;;;;;1.90;1.23;;;;;;;4.14;85.50;95637.50;5062904;28;20215;-64
2022/01/09 10:06:35;;;;;;;1.80;1.03;;;;;;;4.24;84.89;95634.00;5063395;28;20641;-65
2022/01/09 10:09:06;;;;;;;1.87;0.60;;;;;;;4.28;81.94;95634.56;5061664;28;20227;-65
2022/01/09 10:11:42;;;;;;;3.27;0.77;;;;;;;4.24;83.12;95648.84;5060861;28;20202;-64
2022/01/09 10:14:16;;;;;;;2.33;0.90;;;;;;;4.24;86.17;95639.22;5061843;28;21331;-63
2022/01/09 10:17:10;;;;;;;0.77;0.60;;;;;;;4.23;83.94;95640.16;5061241;28;20194;-64
2022/01/09 10:19:48;;;;;;;2.53;0.97;;;;;;;4.31;84.67;95644.75;5062368;28;20206;-66
2022/01/09 10:22:32;;;;;;;3.87;1.93;;;;;;;4.33;82.24;95629.75;5061523;28;20657;-64
2022/01/09 10:25:03;;;;;;;0.70;0.70;;;;;;;4.39;82.39;95629.25;5062349;28;20221;-64
2022/01/09 10:27:32;;;;;;;4.00;2.87;;;;;;;4.63;82.01;95624.53;5060732;28;20215;-64
2022/01/09 10:29:59;;;;;;;1.67;0.80;;;;;;;4.72;80.20;95634.22;5061625;28;20207;-65
2022/01/09 10:32:28;;;;;;;1.60;0.70;;;;;;;4.79;80.35;95635.34;5067664;28;20523;-65
2022/01/09 10:35:09;;;;;;;5.07;1.20;;;;;;;4.81;79.45;95643.91;5063637;28;20195;-65
2022/01/09 10:37:36;;;;;;;2.97;0.90;;;;;;;4.74;81.28;95640.16;5066419;28;20211;-64
2022/01/09 10:40:05;;;;;;;2.53;1.00;;;;;;;4.86;79.52;95640.88;5061586;28;20203;-65
2022/01/09 10:42:32;;;;;;;2.27;1.27;;;;;;;4.80;81.81;95637.00;5062558;28;20203;-64
2022/01/09 10:45:16;;;;;;;0.80;0.63;;;;;;;4.71;82.08;95631.75;5063271;28;20287;-64
2022/01/09 10:47:45;;;;;;;1.90;1.10;;;;;;;4.82;81.97;95631.63;5062166;28;20195;-64
2022/01/09 10:50:23;;;;;;;2.90;0.70;;;;;;;4.77;82.20;95632.03;5063709;28;20714;-65
2022/01/09 10:52:50;;;;;;;1.50;0.87;;;;;;;4.85;83.06;95628.75;5062389;28;20203;-64
2022/01/09 10:55:16;;;;;;;3.23;1.60;;;;;;;4.85;82.72;95637.41;5065027;28;20195;-64
2022/01/09 10:57:43;;;;;;;4.33;3.17;;;;;;;4.90;82.59;95637.84;5060941;28;20550;-64
2022/01/09 11:00:12;;;;;;;1.00;0.90;;;;;;;4.87;80.95;95637.28;5062047;28;20210;-64
2022/01/09 11:02:39;;;;;;;2.50;0.83;;;;;;;4.70;81.73;95641.38;5061568;28;20230;-64
2022/01/09 11:05:20;;;;;;;2.53;0.80;;;;;;;4.87;82.04;95635.50;5063547;28;20233;-64
2022/01/09 11:07:49;;;;;;;0.83;0.67;;;;;;;4.95;81.18;95629.59;5039414;28;20258;-65
2022/01/09 11:10:18;;;;;;;1.13;0.60;;;;;;;4.99;80.43;95637.03;5063276;28;20237;-64
2022/01/09 11:12:48;;;;;;;1.70;0.83;;;;;;;4.90;80.93;95627.38;5064656;28;20583;-65
2022/01/09 11:15:18;;;;;;;1.27;1.07;;;;;;;4.88;80.79;95628.47;5064546;28;20600;-65
2022/01/09 11:17:47;;;;;;;0.63;0.63;;;;;;;4.78;81.90;95623.19;5062337;28;20203;-65
2022/01/09 11:20:17;;;;;;;0.70;0.70;;;;;;;4.85;80.68;95618.28;5065215;28;20206;-65
2022/01/09 11:22:43;;;;;;;0.70;0.50;;;;;;;4.90;81.32;95616.91;5066638;28;20213;-65
2022/01/09 11:25:20;;;;;;;2.20;0.60;;;;;;;4.93;81.05;95608.78;5064515;28;20222;-64
2022/01/09 11:27:54;;;;;;;2.30;0.83;;;;;;;4.86;81.57;95612.06;5063522;28;20194;-64
2022/01/09 11:30:23;;;;;;;0.70;0.60;;;;;;;4.81;80.78;95602.00;5065165;28;20198;-65
2022/01/09 11:32:59;;;;;;;1.60;0.90;;;;;;;4.77;81.23;95600.59;5074668;28;20207;-66
2022/01/09 11:35:37;;;;;;;2.20;0.90;;;;;;;4.77;83.18;95599.78;5075704;28;20193;-65
2022/01/09 11:38:10;;;;;;;0.67;0.60;;;;;;;4.80;81.77;95600.34;5064808;28;20206;-65
2022/01/09 11:40:38;;;;;;;1.30;0.80;;;;;;;4.94;81.52;95605.19;5067880;28;20198;-65
2022/01/09 11:43:07;;;;;;;3.10;1.03;;;;;;;4.99;80.39;95610.03;5067579;28;20269;-65
2022/01/09 11:45:47;;;;;;;3.60;1.07;;;;;;;4.99;80.62;95600.38;5068745;28;20681;-63